createdAt,value
2018-07-16T00:03:56.871Z,19.42
2018-07-16T00:08:59.005Z,19.30
2018-07-16T00:14:01.123Z,19.29
2018-07-16T00:19:03.287Z,19.23
2018-07-16T00:24:05.432Z,19.19
2018-07-16T00:29:07.577Z,19.05
2018-07-16T00:34:09.815Z,18.94
2018-07-16T00:39:12.332Z,18.84
2018-07-16T00:44:14.565Z,18.93
2018-07-16T00:49:16.978Z,18.88
2018-07-16T00:54:19.148Z,18.80
2018-07-16T00:59:21.293Z,18.76
2018-07-16T01:04:23.496Z,18.66
2018-07-16T01:09:25.667Z,18.66
2018-07-16T01:14:27.836Z,18.56
2018-07-16T01:19:30.003Z,18.52
2018-07-16T01:24:32.162Z,18.54
2018-07-16T01:29:34.327Z,18.51
2018-07-16T01:34:36.476Z,18.39
2018-07-16T01:39:38.670Z,18.27
2018-07-16T01:44:40.848Z,18.25
2018-07-16T01:49:43.005Z,18.22
2018-07-16T01:54:45.166Z,18.27
2018-07-16T01:59:47.336Z,18.13
2018-07-16T02:04:49.486Z,18.16
2018-07-16T02:09:51.659Z,18.05
2018-07-16T02:14:53.803Z,18.02
2018-07-16T02:19:56.146Z,18.11
2018-07-16T02:24:58.298Z,18.07
2018-07-16T02:30:00.639Z,17.97
2018-07-16T02:35:02.835Z,17.86
2018-07-16T02:40:05.044Z,17.78
2018-07-16T02:45:07.243Z,17.87
2018-07-16T02:50:09.424Z,17.85
2018-07-16T02:55:11.597Z,17.65
2018-07-16T03:00:13.783Z,17.52
2018-07-16T03:05:17.216Z,17.53
2018-07-16T03:10:19.433Z,17.58
2018-07-16T03:15:21.601Z,17.44
2018-07-16T03:20:23.738Z,17.36
2018-07-16T03:25:25.903Z,17.44
2018-07-16T03:30:28.036Z,17.45
2018-07-16T03:35:30.230Z,17.39
2018-07-16T03:40:32.445Z,17.30
2018-07-16T03:45:34.580Z,17.34
2018-07-16T03:50:36.746Z,17.37
2018-07-16T03:55:38.895Z,17.38
2018-07-16T04:00:41.051Z,17.37
2018-07-16T04:05:43.225Z,17.48
2018-07-16T04:10:45.407Z,17.51
2018-07-16T04:15:47.580Z,17.56
2018-07-16T04:20:50.013Z,17.65
2018-07-16T04:25:52.161Z,17.62
2018-07-16T04:30:54.304Z,17.71
2018-07-16T04:35:56.469Z,17.82
2018-07-16T04:40:58.664Z,17.98
2018-07-16T04:46:00.799Z,18.00
2018-07-16T04:51:02.955Z,18.15
2018-07-16T04:56:05.288Z,18.25
2018-07-16T05:01:08.076Z,18.35
2018-07-16T05:06:10.209Z,18.52
2018-07-16T05:11:12.394Z,18.96
2018-07-16T05:16:14.553Z,19.45
2018-07-16T05:21:16.707Z,19.64
2018-07-16T05:26:18.911Z,19.97
2018-07-16T05:31:21.063Z,20.16
2018-07-16T05:36:23.424Z,20.19
2018-07-16T05:41:25.643Z,20.41
2018-07-16T05:46:27.814Z,20.69
2018-07-16T05:51:30.018Z,20.91
2018-07-16T05:56:32.266Z,21.14
2018-07-16T06:01:34.433Z,21.29
2018-07-16T06:06:36.609Z,21.41
2018-07-16T06:11:38.819Z,21.59
2018-07-16T06:16:41.036Z,21.72
2018-07-16T06:21:43.153Z,21.66
2018-07-16T06:26:45.281Z,21.78
2018-07-16T06:31:47.496Z,21.89
2018-07-16T06:36:49.680Z,22.08
2018-07-16T06:41:51.886Z,22.05
2018-07-16T06:46:54.070Z,22.22
2018-07-16T06:51:56.261Z,22.40
2018-07-16T06:56:58.429Z,22.49
2018-07-16T07:02:00.606Z,22.54
2018-07-16T07:07:02.761Z,22.71
2018-07-16T07:12:04.926Z,22.81
2018-07-16T07:17:07.088Z,22.86
2018-07-16T07:22:09.271Z,23.07
2018-07-16T07:27:11.495Z,23.08
2018-07-16T07:32:13.641Z,23.29
2018-07-16T07:37:15.839Z,23.38
2018-07-16T07:42:18.094Z,23.44
2018-07-16T07:47:20.257Z,23.68
2018-07-16T07:52:22.488Z,23.79
2018-07-16T07:57:25.580Z,23.87
2018-07-16T08:02:27.736Z,23.85
2018-07-16T08:07:29.881Z,24.01
2018-07-16T08:12:32.038Z,24.15
2018-07-16T08:17:34.224Z,24.29
2018-07-16T08:22:36.416Z,24.35
2018-07-16T08:27:38.633Z,24.27
2018-07-16T08:32:40.814Z,24.37
2018-07-16T08:37:42.975Z,24.55
2018-07-16T08:42:45.197Z,24.64
2018-07-16T08:47:47.362Z,24.74
2018-07-16T08:52:49.647Z,24.77
2018-07-16T08:57:52.262Z,24.94
2018-07-16T09:02:54.412Z,24.96
2018-07-16T09:07:56.589Z,24.96
2018-07-16T09:12:58.728Z,24.98
2018-07-16T09:18:00.867Z,25.12
2018-07-16T09:23:03.045Z,25.11
2018-07-16T09:28:05.187Z,25.35
2018-07-16T09:33:07.361Z,25.39
2018-07-16T09:38:09.604Z,25.48
2018-07-16T09:48:21.009Z,25.53
2018-07-16T09:53:23.183Z,25.48
2018-07-16T09:58:25.304Z,25.68
2018-07-16T10:03:27.431Z,25.58
2018-07-16T10:08:29.599Z,25.60
2018-07-16T10:13:31.747Z,25.65
2018-07-16T10:18:33.872Z,25.58
2018-07-16T10:23:36.003Z,25.78
2018-07-16T10:28:38.129Z,25.77
2018-07-16T10:33:40.317Z,25.82
2018-07-16T10:38:42.461Z,25.93
2018-07-16T10:43:44.849Z,26.07
2018-07-16T10:48:47.212Z,26.23
2018-07-16T10:53:49.423Z,26.55
2018-07-16T10:58:51.806Z,26.62
2018-07-16T11:03:54.000Z,26.78
2018-07-16T11:08:56.199Z,26.96
2018-07-16T11:13:58.339Z,27.00
2018-07-16T11:19:00.475Z,27.08
2018-07-16T11:24:02.627Z,27.32
2018-07-16T11:29:04.951Z,27.33
2018-07-16T11:34:07.104Z,27.37
2018-07-16T11:39:09.279Z,27.53
2018-07-16T11:44:11.488Z,27.51
2018-07-16T11:49:13.650Z,27.52
2018-07-16T11:54:15.823Z,27.74
2018-07-16T11:59:18.034Z,28.01
2018-07-16T12:04:20.129Z,28.40
2018-07-16T12:09:22.311Z,28.39
2018-07-16T12:14:24.463Z,28.53
2018-07-16T12:19:26.606Z,29.04
2018-07-16T12:24:29.071Z,28.96
2018-07-16T12:29:31.173Z,28.82
2018-07-16T12:34:33.369Z,28.93
2018-07-16T12:39:36.687Z,29.37
2018-07-16T12:44:40.270Z,29.42
2018-07-16T12:49:50.752Z,29.68
2018-07-16T12:54:54.275Z,30.13
2018-07-16T12:59:58.087Z,30.31
2018-07-16T13:05:08.429Z,30.70
2018-07-16T13:10:11.776Z,30.83
2018-07-16T13:15:14.027Z,30.18
2018-07-16T13:20:16.186Z,30.30
2018-07-16T13:25:18.362Z,30.72
2018-07-16T13:30:20.515Z,31.11
2018-07-16T13:35:22.752Z,31.07
2018-07-16T13:40:24.914Z,31.37
2018-07-16T13:45:27.087Z,31.33
2018-07-16T13:50:29.293Z,31.45
2018-07-16T13:55:31.448Z,31.49
2018-07-16T14:00:33.622Z,31.57
2018-07-16T14:05:35.766Z,31.70
2018-07-16T14:10:38.084Z,31.75
2018-07-16T14:15:40.249Z,31.98
2018-07-16T14:20:42.391Z,32.16
2018-07-16T14:25:44.552Z,32.21
2018-07-16T14:30:46.709Z,32.42
2018-07-16T14:35:48.871Z,32.38
2018-07-16T14:40:51.084Z,32.03
2018-07-16T14:45:53.294Z,32.20
2018-07-16T14:50:55.481Z,32.17
2018-07-16T14:55:57.663Z,32.27
2018-07-16T15:00:59.799Z,32.79
2018-07-16T15:06:01.936Z,32.72
2018-07-16T15:11:04.089Z,32.51
2018-07-16T15:16:06.251Z,32.79
2018-07-16T15:21:08.664Z,32.77
2018-07-16T15:26:10.622Z,32.75
2018-07-16T15:31:12.804Z,32.32
2018-07-16T15:36:14.916Z,32.30
2018-07-16T15:41:17.138Z,32.73
2018-07-16T15:46:19.379Z,32.65
2018-07-16T15:51:21.513Z,32.63
2018-07-16T15:56:23.700Z,32.80
2018-07-16T16:01:25.828Z,32.80
2018-07-16T16:06:28.035Z,32.77
2018-07-16T16:11:30.204Z,32.70
2018-07-16T16:16:32.391Z,32.56
2018-07-16T16:21:34.544Z,32.44
2018-07-16T16:26:36.752Z,32.54
2018-07-16T16:31:38.945Z,32.78
2018-07-16T16:36:41.186Z,32.73
2018-07-16T16:41:43.318Z,32.58
2018-07-16T16:46:45.545Z,32.40
2018-07-16T16:51:47.769Z,32.54
2018-07-16T16:56:49.976Z,32.57
2018-07-16T17:01:52.138Z,32.37
2018-07-16T17:06:54.324Z,32.20
2018-07-16T17:11:56.654Z,32.09
2018-07-16T17:16:58.757Z,32.02
2018-07-16T17:22:00.934Z,31.45
2018-07-16T17:27:03.314Z,31.48
2018-07-16T17:32:05.509Z,31.54
2018-07-16T17:37:07.738Z,31.43
2018-07-16T17:42:09.930Z,31.35
2018-07-16T17:47:12.167Z,31.13
2018-07-16T17:52:14.374Z,30.91
2018-07-16T17:57:16.568Z,30.63
2018-07-16T18:02:18.780Z,30.42
2018-07-16T18:07:21.735Z,30.31
2018-07-16T18:12:23.988Z,29.94
2018-07-16T18:17:26.235Z,29.65
2018-07-16T18:22:28.488Z,29.17
2018-07-16T18:27:30.691Z,28.50
2018-07-16T18:32:32.931Z,28.16
2018-07-16T18:37:35.146Z,27.86
2018-07-16T18:42:37.383Z,27.53
2018-07-16T18:47:39.659Z,27.23
2018-07-16T18:52:41.902Z,27.11
2018-07-16T18:57:44.166Z,26.92
2018-07-16T19:02:46.413Z,26.77
2018-07-16T19:07:48.612Z,26.65
2018-07-16T19:12:50.793Z,26.54
2018-07-16T19:17:53.981Z,26.33
2018-07-16T19:22:56.248Z,26.23
2018-07-16T19:27:58.476Z,26.21
2018-07-16T19:33:00.748Z,26.10
2018-07-16T19:38:03.082Z,26.08
2018-07-16T19:43:05.333Z,25.97
2018-07-16T19:48:07.660Z,25.85
2018-07-16T19:53:09.916Z,25.67
2018-07-16T19:58:12.209Z,25.52
2018-07-16T20:03:14.366Z,25.48
2018-07-16T20:08:16.607Z,25.32
2018-07-16T20:13:18.930Z,25.21
2018-07-16T20:18:21.127Z,25.13
2018-07-16T20:23:23.363Z,25.01
2018-07-16T20:28:25.859Z,25.17
2018-07-16T20:33:28.096Z,25.25
2018-07-16T20:38:30.292Z,25.28
2018-07-16T20:43:32.522Z,25.27
2018-07-16T20:48:34.766Z,25.21
2018-07-16T20:53:37.015Z,25.16
2018-07-16T20:58:39.321Z,25.10
2018-07-16T21:03:41.518Z,24.76
2018-07-16T21:08:43.728Z,24.54
2018-07-16T21:13:45.909Z,24.43
2018-07-16T21:18:48.097Z,24.25
2018-07-16T21:23:50.262Z,23.93
2018-07-16T21:28:52.593Z,23.79
2018-07-16T21:33:54.802Z,23.69
2018-07-16T21:38:57.003Z,23.61
2018-07-16T21:43:59.200Z,23.49
2018-07-16T21:49:01.478Z,23.38
2018-07-16T21:54:03.912Z,23.26
2018-07-16T21:59:06.146Z,23.17
2018-07-16T22:04:08.564Z,23.16
2018-07-16T22:09:10.760Z,23.04
2018-07-16T22:14:12.968Z,22.84
2018-07-16T22:19:15.169Z,22.78
2018-07-16T22:24:17.341Z,22.77
2018-07-16T22:29:19.583Z,22.73
2018-07-16T22:34:21.943Z,22.58
2018-07-16T22:39:24.132Z,22.17
2018-07-16T22:44:26.292Z,22.26
2018-07-16T22:49:28.504Z,22.24
2018-07-16T22:54:30.650Z,22.14
2018-07-16T22:59:32.858Z,22.06
2018-07-16T23:04:35.025Z,22.08
2018-07-16T23:09:37.495Z,21.96
2018-07-16T23:14:39.667Z,21.87
2018-07-16T23:19:41.860Z,21.84
2018-07-16T23:24:44.445Z,21.86
2018-07-16T23:29:46.623Z,21.78
2018-07-16T23:34:48.766Z,21.63
2018-07-16T23:39:50.919Z,21.57
2018-07-16T23:44:53.091Z,21.57
2018-07-16T23:49:55.260Z,21.47
2018-07-16T23:54:57.552Z,21.51
2018-07-16T23:59:59.932Z,21.41
